sensor_id;sensor_type;location;lat;lon;timestamp;temperature;humidity
55642;DHT22;41509;53.108;6.100;2023-02-15T00:01:39;2.60;99.90
55642;DHT22;41509;53.108;6.100;2023-02-15T00:04:05;2.60;99.90
55642;DHT22;41509;53.108;6.100;2023-02-15T00:06:31;2.50;99.90
55642;DHT22;41509;53.108;6.100;2023-02-15T00:08:57;2.50;99.90
55642;DHT22;41509;53.108;6.100;2023-02-15T00:11:23;2.40;99.90
55642;DHT22;41509;53.108;6.100;2023-02-15T00:16:34;2.40;99.90
55642;DHT22;41509;53.108;6.100;2023-02-15T00:19:00;2.30;99.90
55642;DHT22;41509;53.108;6.100;2023-02-15T00:21:30;2.30;99.90
55642;DHT22;41509;53.108;6.100;2023-02-15T00:23:58;2.30;99.90
55642;DHT22;41509;53.108;6.100;2023-02-15T00:26:25;2.30;99.90
55642;DHT22;41509;53.108;6.100;2023-02-15T00:28:50;2.20;99.90
55642;DHT22;41509;53.108;6.100;2023-02-15T00:31:16;2.30;99.90
55642;DHT22;41509;53.108;6.100;2023-02-15T00:33:42;2.30;99.90
55642;DHT22;41509;53.108;6.100;2023-02-15T00:36:09;2.20;99.90
55642;DHT22;41509;53.108;6.100;2023-02-15T00:38:36;2.20;99.90
55642;DHT22;41509;53.108;6.100;2023-02-15T00:41:04;2.20;99.90
55642;DHT22;41509;53.108;6.100;2023-02-15T00:43:31;2.20;99.90
55642;DHT22;41509;53.108;6.100;2023-02-15T00:45:57;2.10;99.90
55642;DHT22;41509;53.108;6.100;2023-02-15T00:48:23;2.10;99.90
55642;DHT22;41509;53.108;6.100;2023-02-15T00:50:51;2.10;99.90
55642;DHT22;41509;53.108;6.100;2023-02-15T00:53:16;2.10;99.90
55642;DHT22;41509;53.108;6.100;2023-02-15T00:55:42;2.10;99.90
55642;DHT22;41509;53.108;6.100;2023-02-15T00:58:09;2.10;99.90
55642;DHT22;41509;53.108;6.100;2023-02-15T01:00:35;2.10;99.90
55642;DHT22;41509;53.108;6.100;2023-02-15T01:03:01;2.00;99.90
55642;DHT22;41509;53.108;6.100;2023-02-15T01:05:27;2.00;99.90
55642;DHT22;41509;53.108;6.100;2023-02-15T01:07:52;2.00;99.90
55642;DHT22;41509;53.108;6.100;2023-02-15T01:10:18;1.90;99.90
55642;DHT22;41509;53.108;6.100;2023-02-15T01:12:44;2.00;99.90
55642;DHT22;41509;53.108;6.100;2023-02-15T01:15:09;1.90;99.90
55642;DHT22;41509;53.108;6.100;2023-02-15T01:17:35;1.90;99.90
55642;DHT22;41509;53.108;6.100;2023-02-15T01:20:01;1.90;99.90
55642;DHT22;41509;53.108;6.100;2023-02-15T01:22:27;1.90;99.90
55642;DHT22;41509;53.108;6.100;2023-02-15T01:24:53;1.90;99.90
55642;DHT22;41509;53.108;6.100;2023-02-15T01:27:18;1.90;99.90
55642;DHT22;41509;53.108;6.100;2023-02-15T01:29:44;1.90;99.90
55642;DHT22;41509;53.108;6.100;2023-02-15T01:32:10;1.90;99.90
55642;DHT22;41509;53.108;6.100;2023-02-15T01:34:35;1.80;99.90
55642;DHT22;41509;53.108;6.100;2023-02-15T01:37:01;1.90;99.90
55642;DHT22;41509;53.108;6.100;2023-02-15T01:39:27;1.80;99.90
55642;DHT22;41509;53.108;6.100;2023-02-15T01:41:52;1.80;99.90
55642;DHT22;41509;53.108;6.100;2023-02-15T01:44:45;1.80;99.90
55642;DHT22;41509;53.108;6.100;2023-02-15T01:47:13;1.80;99.90
55642;DHT22;41509;53.108;6.100;2023-02-15T01:49:40;1.70;99.90
55642;DHT22;41509;53.108;6.100;2023-02-15T01:52:09;1.70;99.90
55642;DHT22;41509;53.108;6.100;2023-02-15T01:54:36;1.70;99.90
55642;DHT22;41509;53.108;6.100;2023-02-15T01:57:11;1.70;99.90
55642;DHT22;41509;53.108;6.100;2023-02-15T01:59:39;1.60;99.90
55642;DHT22;41509;53.108;6.100;2023-02-15T02:02:07;1.70;99.90
55642;DHT22;41509;53.108;6.100;2023-02-15T02:05:02;1.60;99.90
55642;DHT22;41509;53.108;6.100;2023-02-15T02:07:38;1.60;99.90
55642;DHT22;41509;53.108;6.100;2023-02-15T02:10:06;1.60;99.90
55642;DHT22;41509;53.108;6.100;2023-02-15T02:12:33;1.60;99.90
55642;DHT22;41509;53.108;6.100;2023-02-15T02:15:00;1.60;99.90
55642;DHT22;41509;53.108;6.100;2023-02-15T02:17:34;1.60;99.90
55642;DHT22;41509;53.108;6.100;2023-02-15T02:25:42;1.50;99.90
55642;DHT22;41509;53.108;6.100;2023-02-15T02:33:48;1.50;99.90
55642;DHT22;41509;53.108;6.100;2023-02-15T02:39:22;1.40;99.90
55642;DHT22;41509;53.108;6.100;2023-02-15T02:44:43;1.30;99.90
55642;DHT22;41509;53.108;6.100;2023-02-15T02:47:23;1.30;99.90
55642;DHT22;41509;53.108;6.100;2023-02-15T02:49:57;1.30;99.90
55642;DHT22;41509;53.108;6.100;2023-02-15T02:55:29;1.30;99.90
55642;DHT22;41509;53.108;6.100;2023-02-15T03:03:38;1.20;99.90
55642;DHT22;41509;53.108;6.100;2023-02-15T03:06:51;1.20;99.90
55642;DHT22;41509;53.108;6.100;2023-02-15T03:09:27;1.20;99.90
55642;DHT22;41509;53.108;6.100;2023-02-15T03:12:14;1.20;99.90
55642;DHT22;41509;53.108;6.100;2023-02-15T03:14:44;1.20;99.90
55642;DHT22;41509;53.108;6.100;2023-02-15T03:17:11;1.20;99.90
55642;DHT22;41509;53.108;6.100;2023-02-15T03:19:39;1.10;99.90
55642;DHT22;41509;53.108;6.100;2023-02-15T03:22:13;1.10;99.90
55642;DHT22;41509;53.108;6.100;2023-02-15T03:24:47;1.10;99.90
55642;DHT22;41509;53.108;6.100;2023-02-15T03:27:22;1.10;99.90
55642;DHT22;41509;53.108;6.100;2023-02-15T03:29:53;1.10;99.90
55642;DHT22;41509;53.108;6.100;2023-02-15T03:32:20;1.10;99.90
55642;DHT22;41509;53.108;6.100;2023-02-15T03:34:47;1.00;99.90
55642;DHT22;41509;53.108;6.100;2023-02-15T03:37:31;1.10;99.90
55642;DHT22;41509;53.108;6.100;2023-02-15T03:42:49;1.10;99.90
55642;DHT22;41509;53.108;6.100;2023-02-15T03:45:24;1.10;99.90
55642;DHT22;41509;53.108;6.100;2023-02-15T03:47:52;1.10;99.90
55642;DHT22;41509;53.108;6.100;2023-02-15T03:50:32;1.10;99.90
55642;DHT22;41509;53.108;6.100;2023-02-15T03:53:21;1.00;99.90
55642;DHT22;41509;53.108;6.100;2023-02-15T03:55:48;1.00;99.90
55642;DHT22;41509;53.108;6.100;2023-02-15T03:58:13;1.00;99.90
55642;DHT22;41509;53.108;6.100;2023-02-15T04:01:01;1.00;99.90
55642;DHT22;41509;53.108;6.100;2023-02-15T04:04:00;1.00;99.90
55642;DHT22;41509;53.108;6.100;2023-02-15T04:06:27;1.00;99.90
55642;DHT22;41509;53.108;6.100;2023-02-15T04:08:53;1.00;99.90
55642;DHT22;41509;53.108;6.100;2023-02-15T04:11:37;1.00;99.90
55642;DHT22;41509;53.108;6.100;2023-02-15T04:14:03;0.90;99.90
55642;DHT22;41509;53.108;6.100;2023-02-15T04:16:48;1.00;99.90
55642;DHT22;41509;53.108;6.100;2023-02-15T04:19:15;1.00;99.90
55642;DHT22;41509;53.108;6.100;2023-02-15T04:21:59;0.90;99.90
55642;DHT22;41509;53.108;6.100;2023-02-15T04:24:43;1.00;99.90
55642;DHT22;41509;53.108;6.100;2023-02-15T04:27:27;1.00;99.90
55642;DHT22;41509;53.108;6.100;2023-02-15T04:29:52;1.00;99.90
55642;DHT22;41509;53.108;6.100;2023-02-15T04:32:18;1.00;99.90
55642;DHT22;41509;53.108;6.100;2023-02-15T04:34:43;1.00;99.90
55642;DHT22;41509;53.108;6.100;2023-02-15T04:37:09;0.90;99.90
55642;DHT22;41509;53.108;6.100;2023-02-15T04:39:35;1.00;99.90
55642;DHT22;41509;53.108;6.100;2023-02-15T04:42:01;1.00;99.90
55642;DHT22;41509;53.108;6.100;2023-02-15T04:44:27;1.00;99.90
55642;DHT22;41509;53.108;6.100;2023-02-15T04:46:52;1.00;99.90
55642;DHT22;41509;53.108;6.100;2023-02-15T04:49:18;1.00;99.90
55642;DHT22;41509;53.108;6.100;2023-02-15T04:51:44;0.90;99.90
55642;DHT22;41509;53.108;6.100;2023-02-15T04:54:09;1.00;99.90
55642;DHT22;41509;53.108;6.100;2023-02-15T04:56:35;0.90;99.90
55642;DHT22;41509;53.108;6.100;2023-02-15T04:59:03;0.90;99.90
55642;DHT22;41509;53.108;6.100;2023-02-15T05:01:29;0.90;99.90
55642;DHT22;41509;53.108;6.100;2023-02-15T05:03:54;0.90;99.90
55642;DHT22;41509;53.108;6.100;2023-02-15T05:06:20;0.90;99.90
55642;DHT22;41509;53.108;6.100;2023-02-15T05:08:46;0.90;99.90
55642;DHT22;41509;53.108;6.100;2023-02-15T05:11:11;0.90;99.90
55642;DHT22;41509;53.108;6.100;2023-02-15T05:13:37;0.90;99.90
55642;DHT22;41509;53.108;6.100;2023-02-15T05:16:03;0.90;99.90
55642;DHT22;41509;53.108;6.100;2023-02-15T05:18:28;0.90;99.90
55642;DHT22;41509;53.108;6.100;2023-02-15T05:20:54;0.90;99.90
55642;DHT22;41509;53.108;6.100;2023-02-15T05:23:20;0.90;99.90
55642;DHT22;41509;53.108;6.100;2023-02-15T05:25:49;0.90;99.90
55642;DHT22;41509;53.108;6.100;2023-02-15T05:28:35;0.90;99.90
55642;DHT22;41509;53.108;6.100;2023-02-15T05:31:07;0.90;99.90
55642;DHT22;41509;53.108;6.100;2023-02-15T05:33:34;0.90;99.90
55642;DHT22;41509;53.108;6.100;2023-02-15T05:36:00;0.90;99.90
55642;DHT22;41509;53.108;6.100;2023-02-15T05:38:26;0.90;99.90
55642;DHT22;41509;53.108;6.100;2023-02-15T05:40:52;0.90;99.90
55642;DHT22;41509;53.108;6.100;2023-02-15T05:43:18;0.90;99.90
55642;DHT22;41509;53.108;6.100;2023-02-15T05:45:48;0.90;99.90
55642;DHT22;41509;53.108;6.100;2023-02-15T05:48:15;0.90;99.90
55642;DHT22;41509;53.108;6.100;2023-02-15T05:50:40;1.00;99.90
55642;DHT22;41509;53.108;6.100;2023-02-15T05:53:06;1.00;99.90
55642;DHT22;41509;53.108;6.100;2023-02-15T05:55:32;0.90;99.90
55642;DHT22;41509;53.108;6.100;2023-02-15T05:57:57;0.90;99.90
55642;DHT22;41509;53.108;6.100;2023-02-15T06:00:23;1.00;99.90
55642;DHT22;41509;53.108;6.100;2023-02-15T06:02:49;1.00;99.90
55642;DHT22;41509;53.108;6.100;2023-02-15T06:05:14;1.00;99.90
55642;DHT22;41509;53.108;6.100;2023-02-15T06:07:43;1.00;99.90
55642;DHT22;41509;53.108;6.100;2023-02-15T06:10:09;1.00;99.90
55642;DHT22;41509;53.108;6.100;2023-02-15T06:12:35;1.00;99.90
55642;DHT22;41509;53.108;6.100;2023-02-15T06:15:01;1.00;99.90
55642;DHT22;41509;53.108;6.100;2023-02-15T06:17:27;1.00;99.90
55642;DHT22;41509;53.108;6.100;2023-02-15T06:19:53;1.10;99.90
55642;DHT22;41509;53.108;6.100;2023-02-15T06:22:18;1.10;99.90
55642;DHT22;41509;53.108;6.100;2023-02-15T06:24:45;1.20;99.90
55642;DHT22;41509;53.108;6.100;2023-02-15T06:27:11;1.20;99.90
55642;DHT22;41509;53.108;6.100;2023-02-15T06:29:37;1.20;99.90
55642;DHT22;41509;53.108;6.100;2023-02-15T06:32:03;1.20;99.90
55642;DHT22;41509;53.108;6.100;2023-02-15T06:34:28;1.20;99.90
55642;DHT22;41509;53.108;6.100;2023-02-15T06:36:54;1.20;99.90
55642;DHT22;41509;53.108;6.100;2023-02-15T06:39:19;1.20;99.90
55642;DHT22;41509;53.108;6.100;2023-02-15T06:41:45;1.30;99.90
55642;DHT22;41509;53.108;6.100;2023-02-15T06:44:11;1.20;99.90
55642;DHT22;41509;53.108;6.100;2023-02-15T06:46:36;1.30;99.90
55642;DHT22;41509;53.108;6.100;2023-02-15T06:49:02;1.30;99.90
55642;DHT22;41509;53.108;6.100;2023-02-15T06:51:27;1.30;99.90
55642;DHT22;41509;53.108;6.100;2023-02-15T06:53:53;1.30;99.90
55642;DHT22;41509;53.108;6.100;2023-02-15T06:56:19;1.40;99.90
55642;DHT22;41509;53.108;6.100;2023-02-15T06:58:44;1.40;99.90
55642;DHT22;41509;53.108;6.100;2023-02-15T07:01:15;1.40;99.90
55642;DHT22;41509;53.108;6.100;2023-02-15T07:03:40;1.40;99.90
55642;DHT22;41509;53.108;6.100;2023-02-15T07:06:06;1.40;99.90
55642;DHT22;41509;53.108;6.100;2023-02-15T07:08:34;1.50;99.90
55642;DHT22;41509;53.108;6.100;2023-02-15T07:11:01;1.50;99.90
55642;DHT22;41509;53.108;6.100;2023-02-15T07:13:50;1.50;99.90
55642;DHT22;41509;53.108;6.100;2023-02-15T07:16:18;1.50;99.90
55642;DHT22;41509;53.108;6.100;2023-02-15T07:18:44;1.60;99.90
55642;DHT22;41509;53.108;6.100;2023-02-15T07:21:09;1.60;99.90
55642;DHT22;41509;53.108;6.100;2023-02-15T07:23:39;1.60;99.90
55642;DHT22;41509;53.108;6.100;2023-02-15T07:26:06;1.60;99.90
55642;DHT22;41509;53.108;6.100;2023-02-15T07:28:33;1.60;99.90
55642;DHT22;41509;53.108;6.100;2023-02-15T07:31:00;1.60;99.90
55642;DHT22;41509;53.108;6.100;2023-02-15T07:33:26;1.70;99.90
55642;DHT22;41509;53.108;6.100;2023-02-15T07:35:56;1.70;99.90
55642;DHT22;41509;53.108;6.100;2023-02-15T07:38:24;1.70;99.90
55642;DHT22;41509;53.108;6.100;2023-02-15T07:40:50;1.70;99.90
55642;DHT22;41509;53.108;6.100;2023-02-15T07:43:16;1.70;99.90
55642;DHT22;41509;53.108;6.100;2023-02-15T07:45:42;1.80;99.90
55642;DHT22;41509;53.108;6.100;2023-02-15T07:48:08;1.80;99.90
55642;DHT22;41509;53.108;6.100;2023-02-15T07:50:34;1.90;99.90
55642;DHT22;41509;53.108;6.100;2023-02-15T07:53:03;1.90;99.90
55642;DHT22;41509;53.108;6.100;2023-02-15T07:55:29;1.90;99.90
55642;DHT22;41509;53.108;6.100;2023-02-15T07:57:55;2.00;99.90
55642;DHT22;41509;53.108;6.100;2023-02-15T08:00:21;2.00;99.90
55642;DHT22;41509;53.108;6.100;2023-02-15T08:02:52;2.00;99.90
55642;DHT22;41509;53.108;6.100;2023-02-15T08:05:37;2.10;99.90
55642;DHT22;41509;53.108;6.100;2023-02-15T08:08:02;2.10;99.90
55642;DHT22;41509;53.108;6.100;2023-02-15T08:10:28;2.20;99.90
55642;DHT22;41509;53.108;6.100;2023-02-15T08:13:12;2.20;99.90
55642;DHT22;41509;53.108;6.100;2023-02-15T08:15:38;2.20;99.90
55642;DHT22;41509;53.108;6.100;2023-02-15T08:18:04;2.30;99.90
55642;DHT22;41509;53.108;6.100;2023-02-15T08:20:29;2.30;99.90
55642;DHT22;41509;53.108;6.100;2023-02-15T08:22:55;2.40;99.90
55642;DHT22;41509;53.108;6.100;2023-02-15T08:25:20;2.40;99.90
55642;DHT22;41509;53.108;6.100;2023-02-15T08:27:46;2.50;99.90
55642;DHT22;41509;53.108;6.100;2023-02-15T08:30:12;2.50;99.90
55642;DHT22;41509;53.108;6.100;2023-02-15T08:32:39;2.60;99.90
55642;DHT22;41509;53.108;6.100;2023-02-15T08:35:05;2.70;99.90
55642;DHT22;41509;53.108;6.100;2023-02-15T08:37:32;2.80;99.90
55642;DHT22;41509;53.108;6.100;2023-02-15T08:39:58;2.80;99.90
55642;DHT22;41509;53.108;6.100;2023-02-15T08:42:23;2.90;99.90
55642;DHT22;41509;53.108;6.100;2023-02-15T08:44:49;2.90;99.90
55642;DHT22;41509;53.108;6.100;2023-02-15T08:47:16;3.00;99.90
55642;DHT22;41509;53.108;6.100;2023-02-15T08:49:42;3.10;99.90
55642;DHT22;41509;53.108;6.100;2023-02-15T08:52:08;3.10;99.90
55642;DHT22;41509;53.108;6.100;2023-02-15T08:54:33;3.10;99.90
55642;DHT22;41509;53.108;6.100;2023-02-15T08:56:59;3.20;99.90
55642;DHT22;41509;53.108;6.100;2023-02-15T08:59:26;3.20;99.90
55642;DHT22;41509;53.108;6.100;2023-02-15T09:01:52;3.30;99.90
55642;DHT22;41509;53.108;6.100;2023-02-15T09:04:19;3.40;99.90
55642;DHT22;41509;53.108;6.100;2023-02-15T09:06:46;3.40;99.90
55642;DHT22;41509;53.108;6.100;2023-02-15T09:09:12;3.50;99.90
55642;DHT22;41509;53.108;6.100;2023-02-15T09:11:43;3.60;99.90
55642;DHT22;41509;53.108;6.100;2023-02-15T09:14:15;3.60;99.90
55642;DHT22;41509;53.108;6.100;2023-02-15T09:16:43;3.70;99.90
55642;DHT22;41509;53.108;6.100;2023-02-15T09:19:11;3.80;99.90
55642;DHT22;41509;53.108;6.100;2023-02-15T09:21:37;3.90;99.90
55642;DHT22;41509;53.108;6.100;2023-02-15T09:24:06;4.00;99.90
55642;DHT22;41509;53.108;6.100;2023-02-15T09:26:34;4.10;99.90
55642;DHT22;41509;53.108;6.100;2023-02-15T09:29:01;4.20;99.90
55642;DHT22;41509;53.108;6.100;2023-02-15T09:31:30;4.20;99.90
55642;DHT22;41509;53.108;6.100;2023-02-15T09:33:58;4.30;99.90
55642;DHT22;41509;53.108;6.100;2023-02-15T09:36:28;4.40;99.90
55642;DHT22;41509;53.108;6.100;2023-02-15T09:39:01;4.50;99.90
55642;DHT22;41509;53.108;6.100;2023-02-15T09:53:38;5.00;99.90
55642;DHT22;41509;53.108;6.100;2023-02-15T09:56:32;5.10;99.90
55642;DHT22;41509;53.108;6.100;2023-02-15T09:59:21;5.20;99.90
55642;DHT22;41509;53.108;6.100;2023-02-15T10:02:02;5.40;99.90
55642;DHT22;41509;53.108;6.100;2023-02-15T10:10:41;5.70;99.90
55642;DHT22;41509;53.108;6.100;2023-02-15T10:19:03;6.10;99.90
55642;DHT22;41509;53.108;6.100;2023-02-15T10:26:47;6.40;99.90
55642;DHT22;41509;53.108;6.100;2023-02-15T10:29:36;6.60;99.90
55642;DHT22;41509;53.108;6.100;2023-02-15T10:32:17;6.70;99.90
55642;DHT22;41509;53.108;6.100;2023-02-15T10:35:01;6.90;99.90
55642;DHT22;41509;53.108;6.100;2023-02-15T11:07:58;8.40;99.90
55642;DHT22;41509;53.108;6.100;2023-02-15T11:10:48;8.50;99.90
55642;DHT22;41509;53.108;6.100;2023-02-15T11:13:18;8.60;99.90
55642;DHT22;41509;53.108;6.100;2023-02-15T11:15:56;8.60;99.90
55642;DHT22;41509;53.108;6.100;2023-02-15T11:18:32;8.80;99.90
55642;DHT22;41509;53.108;6.100;2023-02-15T11:21:10;8.90;99.90
55642;DHT22;41509;53.108;6.100;2023-02-15T11:23:43;9.00;99.90
55642;DHT22;41509;53.108;6.100;2023-02-15T11:28:52;9.20;99.90
55642;DHT22;41509;53.108;6.100;2023-02-15T11:31:22;9.20;99.90
55642;DHT22;41509;53.108;6.100;2023-02-15T11:34:06;9.30;99.90
55642;DHT22;41509;53.108;6.100;2023-02-15T11:36:40;9.50;99.90
55642;DHT22;41509;53.108;6.100;2023-02-15T11:39:16;9.60;99.90
55642;DHT22;41509;53.108;6.100;2023-02-15T11:41:49;9.60;99.90
55642;DHT22;41509;53.108;6.100;2023-02-15T11:44:32;9.70;99.90
55642;DHT22;41509;53.108;6.100;2023-02-15T11:47:00;9.80;99.90
55642;DHT22;41509;53.108;6.100;2023-02-15T11:49:32;10.00;99.90
55642;DHT22;41509;53.108;6.100;2023-02-15T11:52:01;10.20;99.90
55642;DHT22;41509;53.108;6.100;2023-02-15T11:54:30;10.30;99.90
55642;DHT22;41509;53.108;6.100;2023-02-15T11:57:01;10.40;99.90
55642;DHT22;41509;53.108;6.100;2023-02-15T11:59:34;10.60;99.90
55642;DHT22;41509;53.108;6.100;2023-02-15T12:02:02;10.70;99.90
55642;DHT22;41509;53.108;6.100;2023-02-15T12:04:36;10.70;99.90
55642;DHT22;41509;53.108;6.100;2023-02-15T12:07:24;10.80;99.90
55642;DHT22;41509;53.108;6.100;2023-02-15T12:10:05;10.90;99.90
55642;DHT22;41509;53.108;6.100;2023-02-15T12:12:37;11.10;99.90
55642;DHT22;41509;53.108;6.100;2023-02-15T12:15:08;11.10;99.90
55642;DHT22;41509;53.108;6.100;2023-02-15T12:17:52;11.10;99.90
55642;DHT22;41509;53.108;6.100;2023-02-15T12:23:02;11.30;99.90
55642;DHT22;41509;53.108;6.100;2023-02-15T12:25:54;11.40;99.90
55642;DHT22;41509;53.108;6.100;2023-02-15T12:28:33;11.50;99.90
55642;DHT22;41509;53.108;6.100;2023-02-15T12:31:01;11.50;99.90
55642;DHT22;41509;53.108;6.100;2023-02-15T12:36:47;11.60;99.90
55642;DHT22;41509;53.108;6.100;2023-02-15T12:41:33;11.60;99.90
55642;DHT22;41509;53.108;6.100;2023-02-15T12:47:26;11.60;99.90
55642;DHT22;41509;53.108;6.100;2023-02-15T12:50:14;11.60;99.90
55642;DHT22;41509;53.108;6.100;2023-02-15T12:52:48;11.60;99.90
55642;DHT22;41509;53.108;6.100;2023-02-15T12:55:19;11.60;99.90
55642;DHT22;41509;53.108;6.100;2023-02-15T12:57:45;11.50;99.90
55642;DHT22;41509;53.108;6.100;2023-02-15T13:02:50;11.50;99.90
55642;DHT22;41509;53.108;6.100;2023-02-15T13:05:28;11.50;99.90
55642;DHT22;41509;53.108;6.100;2023-02-15T13:07:57;11.50;99.90
55642;DHT22;41509;53.108;6.100;2023-02-15T13:10:54;11.50;99.90
55642;DHT22;41509;53.108;6.100;2023-02-15T13:13:22;11.50;99.90
55642;DHT22;41509;53.108;6.100;2023-02-15T13:15:58;11.40;99.90
55642;DHT22;41509;53.108;6.100;2023-02-15T13:20:52;11.30;99.90
55642;DHT22;41509;53.108;6.100;2023-02-15T13:23:29;11.30;99.90
55642;DHT22;41509;53.108;6.100;2023-02-15T13:25:55;11.30;99.90
55642;DHT22;41509;53.108;6.100;2023-02-15T13:28:26;11.30;99.90
55642;DHT22;41509;53.108;6.100;2023-02-15T13:30:53;11.30;99.90
55642;DHT22;41509;53.108;6.100;2023-02-15T13:33:24;11.30;99.90
55642;DHT22;41509;53.108;6.100;2023-02-15T13:41:17;11.20;99.90
55642;DHT22;41509;53.108;6.100;2023-02-15T13:46:25;11.20;99.90
55642;DHT22;41509;53.108;6.100;2023-02-15T13:49:24;11.10;99.90
55642;DHT22;41509;53.108;6.100;2023-02-15T13:52:18;11.00;99.90
55642;DHT22;41509;53.108;6.100;2023-02-15T14:00:22;10.90;99.90
55642;DHT22;41509;53.108;6.100;2023-02-15T14:03:24;10.90;99.90
55642;DHT22;41509;53.108;6.100;2023-02-15T14:20:39;10.80;99.90
55642;DHT22;41509;53.108;6.100;2023-02-15T14:25:52;10.80;99.90
55642;DHT22;41509;53.108;6.100;2023-02-15T14:28:49;10.80;99.90
55642;DHT22;41509;53.108;6.100;2023-02-15T14:31:19;10.70;99.90
55642;DHT22;41509;53.108;6.100;2023-02-15T14:33:57;10.70;99.90
55642;DHT22;41509;53.108;6.100;2023-02-15T14:36:24;10.70;99.90
55642;DHT22;41509;53.108;6.100;2023-02-15T14:39:06;10.70;99.90
55642;DHT22;41509;53.108;6.100;2023-02-15T14:41:57;10.70;99.90
55642;DHT22;41509;53.108;6.100;2023-02-15T14:47:21;10.80;99.90
55642;DHT22;41509;53.108;6.100;2023-02-15T14:49:47;10.80;99.90
55642;DHT22;41509;53.108;6.100;2023-02-15T14:52:13;10.80;99.90
55642;DHT22;41509;53.108;6.100;2023-02-15T15:04:32;10.90;99.90
55642;DHT22;41509;53.108;6.100;2023-02-15T15:09:39;10.80;99.90
55642;DHT22;41509;53.108;6.100;2023-02-15T15:14:47;10.70;99.90
55642;DHT22;41509;53.108;6.100;2023-02-15T15:22:50;10.50;99.90
55642;DHT22;41509;53.108;6.100;2023-02-15T15:25:47;10.50;99.90
55642;DHT22;41509;53.108;6.100;2023-02-15T15:33:53;10.40;99.90
55642;DHT22;41509;53.108;6.100;2023-02-15T15:41:52;10.20;99.90
55642;DHT22;41509;53.108;6.100;2023-02-15T15:49:58;10.20;99.90
55642;DHT22;41509;53.108;6.100;2023-02-15T15:52:25;10.10;99.90
55642;DHT22;41509;53.108;6.100;2023-02-15T15:54:56;10.10;99.90
55642;DHT22;41509;53.108;6.100;2023-02-15T15:57:30;10.10;99.90
55642;DHT22;41509;53.108;6.100;2023-02-15T15:59:57;10.00;99.90
55642;DHT22;41509;53.108;6.100;2023-02-15T16:02:26;9.90;99.90
55642;DHT22;41509;53.108;6.100;2023-02-15T16:05:06;9.90;99.90
55642;DHT22;41509;53.108;6.100;2023-02-15T16:07:41;9.90;99.90
55642;DHT22;41509;53.108;6.100;2023-02-15T16:10:26;9.80;99.90
55642;DHT22;41509;53.108;6.100;2023-02-15T16:12:53;9.80;99.90
55642;DHT22;41509;53.108;6.100;2023-02-15T16:15:42;9.70;99.90
55642;DHT22;41509;53.108;6.100;2023-02-15T16:18:14;9.70;99.90
55642;DHT22;41509;53.108;6.100;2023-02-15T16:20:41;9.60;99.90
55642;DHT22;41509;53.108;6.100;2023-02-15T16:28:12;9.40;99.90
55642;DHT22;41509;53.108;6.100;2023-02-15T16:30:39;9.40;99.90
55642;DHT22;41509;53.108;6.100;2023-02-15T16:33:08;9.30;99.90
55642;DHT22;41509;53.108;6.100;2023-02-15T16:35:38;9.30;99.90
55642;DHT22;41509;53.108;6.100;2023-02-15T16:38:05;9.30;99.90
55642;DHT22;41509;53.108;6.100;2023-02-15T16:40:39;9.10;99.90
55642;DHT22;41509;53.108;6.100;2023-02-15T16:43:16;9.10;99.90
55642;DHT22;41509;53.108;6.100;2023-02-15T16:45:43;9.00;99.90
55642;DHT22;41509;53.108;6.100;2023-02-15T16:48:21;8.90;99.90
55642;DHT22;41509;53.108;6.100;2023-02-15T16:51:12;9.00;99.90
55642;DHT22;41509;53.108;6.100;2023-02-15T16:53:37;8.80;99.90
55642;DHT22;41509;53.108;6.100;2023-02-15T16:56:05;8.70;99.90
55642;DHT22;41509;53.108;6.100;2023-02-15T17:01:07;8.60;99.90
55642;DHT22;41509;53.108;6.100;2023-02-15T17:03:34;8.60;99.90
55642;DHT22;41509;53.108;6.100;2023-02-15T17:06:02;8.60;99.90
55642;DHT22;41509;53.108;6.100;2023-02-15T17:08:31;8.50;99.90
55642;DHT22;41509;53.108;6.100;2023-02-15T17:11:19;8.40;99.90
55642;DHT22;41509;53.108;6.100;2023-02-15T17:16:52;8.40;99.90
55642;DHT22;41509;53.108;6.100;2023-02-15T17:19:27;8.30;99.90
55642;DHT22;41509;53.108;6.100;2023-02-15T17:22:18;8.30;99.90
55642;DHT22;41509;53.108;6.100;2023-02-15T17:24:48;8.20;99.90
55642;DHT22;41509;53.108;6.100;2023-02-15T17:27:22;8.20;99.90
55642;DHT22;41509;53.108;6.100;2023-02-15T17:29:51;8.20;99.90
55642;DHT22;41509;53.108;6.100;2023-02-15T17:32:34;8.10;99.90
55642;DHT22;41509;53.108;6.100;2023-02-15T17:35:28;8.10;99.90
55642;DHT22;41509;53.108;6.100;2023-02-15T17:40:35;8.00;99.90
55642;DHT22;41509;53.108;6.100;2023-02-15T17:43:01;8.10;99.90
55642;DHT22;41509;53.108;6.100;2023-02-15T17:45:35;8.00;99.90
55642;DHT22;41509;53.108;6.100;2023-02-15T17:48:03;8.00;99.90
55642;DHT22;41509;53.108;6.100;2023-02-15T17:50:29;8.00;99.90
55642;DHT22;41509;53.108;6.100;2023-02-15T17:52:56;7.90;99.90
55642;DHT22;41509;53.108;6.100;2023-02-15T17:55:24;7.90;99.90
55642;DHT22;41509;53.108;6.100;2023-02-15T17:58:17;7.90;99.90
55642;DHT22;41509;53.108;6.100;2023-02-15T18:00:56;7.80;99.90
55642;DHT22;41509;53.108;6.100;2023-02-15T18:03:51;7.80;99.90
55642;DHT22;41509;53.108;6.100;2023-02-15T18:06:41;7.80;99.90
55642;DHT22;41509;53.108;6.100;2023-02-15T18:09:26;7.70;99.90
55642;DHT22;41509;53.108;6.100;2023-02-15T18:12:23;7.70;99.90
55642;DHT22;41509;53.108;6.100;2023-02-15T18:14:55;7.70;99.90
55642;DHT22;41509;53.108;6.100;2023-02-15T18:17:40;7.60;99.90
55642;DHT22;41509;53.108;6.100;2023-02-15T18:22:44;7.60;99.90
55642;DHT22;41509;53.108;6.100;2023-02-15T18:25:16;7.60;99.90
55642;DHT22;41509;53.108;6.100;2023-02-15T18:27:42;7.50;99.90
55642;DHT22;41509;53.108;6.100;2023-02-15T18:30:13;7.50;99.90
55642;DHT22;41509;53.108;6.100;2023-02-15T18:32:40;7.50;99.90
55642;DHT22;41509;53.108;6.100;2023-02-15T18:35:06;7.50;99.90
55642;DHT22;41509;53.108;6.100;2023-02-15T18:37:32;7.50;99.90
55642;DHT22;41509;53.108;6.100;2023-02-15T18:39:59;7.50;99.90
55642;DHT22;41509;53.108;6.100;2023-02-15T18:42:33;7.40;99.90
55642;DHT22;41509;53.108;6.100;2023-02-15T18:45:17;7.40;99.90
55642;DHT22;41509;53.108;6.100;2023-02-15T18:47:52;7.40;99.90
55642;DHT22;41509;53.108;6.100;2023-02-15T18:50:24;7.40;99.90
55642;DHT22;41509;53.108;6.100;2023-02-15T18:52:51;7.30;99.90
55642;DHT22;41509;53.108;6.100;2023-02-15T18:55:30;7.30;99.90
55642;DHT22;41509;53.108;6.100;2023-02-15T18:58:03;7.30;99.90
55642;DHT22;41509;53.108;6.100;2023-02-15T19:00:31;7.30;99.90
55642;DHT22;41509;53.108;6.100;2023-02-15T19:02:58;7.30;99.90
55642;DHT22;41509;53.108;6.100;2023-02-15T19:05:28;7.30;99.90
55642;DHT22;41509;53.108;6.100;2023-02-15T19:07:58;7.30;99.90
55642;DHT22;41509;53.108;6.100;2023-02-15T19:10:26;7.30;99.90
55642;DHT22;41509;53.108;6.100;2023-02-15T19:12:53;7.30;99.90
55642;DHT22;41509;53.108;6.100;2023-02-15T19:15:22;7.30;99.90
55642;DHT22;41509;53.108;6.100;2023-02-15T19:17:50;7.30;99.90
55642;DHT22;41509;53.108;6.100;2023-02-15T19:20:29;7.30;99.90
55642;DHT22;41509;53.108;6.100;2023-02-15T19:22:56;7.30;99.90
55642;DHT22;41509;53.108;6.100;2023-02-15T19:25:25;7.30;99.90